createdAt,value
2019-03-15T00:00:48.967Z,18.60
2019-03-15T00:01:58.046Z,19.55
2019-03-15T00:03:03.027Z,17.85
2019-03-15T00:04:07.914Z,19.92
2019-03-15T00:05:12.767Z,20.12
2019-03-15T00:06:17.776Z,19.48
2019-03-15T00:07:22.696Z,25.55
2019-03-15T00:08:27.611Z,28.32
2019-03-15T00:09:32.592Z,25.37
2019-03-15T00:10:37.410Z,26.02
2019-03-15T00:11:42.195Z,24.32
2019-03-15T00:12:47.363Z,24.37
2019-03-15T00:13:52.313Z,23.00
2019-03-15T00:14:57.113Z,20.82
2019-03-15T00:16:01.858Z,22.05
2019-03-15T00:17:06.881Z,20.82
2019-03-15T00:18:11.739Z,19.82
2019-03-15T00:19:16.629Z,19.75
2019-03-15T00:20:21.575Z,22.22
2019-03-15T00:21:26.568Z,22.13
2019-03-15T00:22:31.610Z,23.70
2019-03-15T00:23:36.417Z,21.60
2019-03-15T00:24:42.575Z,20.68
2019-03-15T00:25:47.692Z,21.45
2019-03-15T00:26:52.751Z,26.10
2019-03-15T00:27:57.655Z,23.80
2019-03-15T00:29:02.625Z,22.58
2019-03-15T00:30:08.464Z,26.62
2019-03-15T00:31:13.425Z,23.05
2019-03-15T00:32:18.236Z,22.15
2019-03-15T00:33:24.468Z,20.68
2019-03-15T00:34:29.580Z,20.77
2019-03-15T00:35:34.522Z,21.37
2019-03-15T00:36:39.396Z,23.67
2019-03-15T00:37:44.297Z,20.08
2019-03-15T00:38:49.420Z,20.23
2019-03-15T00:39:54.407Z,20.95
2019-03-15T00:40:59.342Z,19.82
2019-03-15T00:42:04.523Z,20.30
2019-03-15T00:43:09.365Z,18.70
2019-03-15T00:44:14.474Z,21.55
2019-03-15T00:45:19.572Z,21.33
2019-03-15T00:46:24.481Z,21.10
2019-03-15T00:47:29.326Z,22.40
2019-03-15T00:48:34.332Z,21.97
2019-03-15T00:49:39.258Z,21.62
2019-03-15T00:50:44.136Z,20.25
2019-03-15T00:51:48.937Z,20.72
2019-03-15T00:52:53.856Z,21.85
2019-03-15T00:53:58.837Z,22.60
2019-03-15T00:55:03.724Z,21.70
2019-03-15T00:56:08.624Z,19.75
2019-03-15T00:57:13.541Z,21.77
2019-03-15T00:58:18.547Z,22.90
2019-03-15T00:59:23.459Z,23.90
2019-03-15T01:00:28.394Z,22.75
2019-03-15T01:01:33.260Z,23.73
2019-03-15T01:02:38.248Z,22.10
2019-03-15T01:03:43.529Z,24.85
2019-03-15T01:04:48.326Z,25.27
2019-03-15T01:05:53.092Z,23.70
2019-03-15T01:06:58.213Z,22.48
2019-03-15T01:08:03.211Z,19.77
2019-03-15T01:09:08.401Z,21.60
2019-03-15T01:10:13.804Z,23.15
2019-03-15T01:11:18.816Z,23.27
2019-03-15T01:12:24.167Z,25.08
2019-03-15T01:13:29.296Z,28.70
2019-03-15T01:14:34.315Z,31.30
2019-03-15T01:15:39.361Z,29.37
2019-03-15T01:16:44.376Z,27.67
2019-03-15T01:17:49.268Z,29.32
2019-03-15T01:18:54.083Z,27.45
2019-03-15T01:19:59.037Z,25.88
2019-03-15T01:21:03.828Z,23.92
2019-03-15T01:22:08.930Z,25.43
2019-03-15T01:23:14.103Z,25.55
2019-03-15T01:24:18.857Z,23.67
2019-03-15T01:25:23.832Z,25.82
2019-03-15T01:26:28.610Z,24.35
2019-03-15T01:27:33.533Z,23.75
2019-03-15T01:28:38.403Z,24.35
2019-03-15T01:29:43.457Z,25.70
2019-03-15T01:30:48.398Z,28.12
2019-03-15T01:31:53.264Z,27.52
2019-03-15T01:32:58.245Z,26.27
2019-03-15T01:34:02.972Z,25.02
2019-03-15T01:35:08.046Z,24.45
2019-03-15T01:36:13.074Z,23.87
2019-03-15T01:37:18.028Z,25.85
2019-03-15T01:38:22.932Z,25.75
2019-03-15T01:39:27.800Z,24.10
2019-03-15T01:40:32.684Z,26.17
2019-03-15T01:41:37.678Z,25.23
2019-03-15T01:42:42.593Z,23.35
2019-03-15T01:43:47.377Z,25.60
2019-03-15T01:44:53.269Z,22.40
2019-03-15T01:45:58.456Z,26.57
2019-03-15T01:47:03.385Z,29.48
2019-03-15T01:48:08.185Z,23.85
2019-03-15T01:49:13.124Z,26.85
2019-03-15T01:50:18.169Z,22.20
2019-03-15T01:51:22.956Z,25.10
2019-03-15T01:52:27.856Z,24.82
2019-03-15T01:53:32.733Z,25.15
2019-03-15T01:54:37.727Z,25.97
2019-03-15T01:55:43.016Z,23.22
2019-03-15T01:56:47.914Z,25.35
2019-03-15T01:57:52.752Z,23.60
2019-03-15T01:58:57.652Z,25.23
2019-03-15T02:00:02.632Z,26.20
2019-03-15T02:01:07.555Z,26.97
2019-03-15T02:02:12.336Z,25.52
2019-03-15T02:03:17.302Z,23.70
2019-03-15T02:04:22.228Z,25.35
2019-03-15T02:05:27.116Z,26.10
2019-03-15T02:06:31.920Z,28.25
2019-03-15T02:07:36.833Z,28.98
2019-03-15T02:08:41.689Z,30.55
2019-03-15T02:09:46.677Z,29.60
2019-03-15T02:10:51.478Z,29.25
2019-03-15T02:11:56.328Z,27.82
2019-03-15T02:13:01.254Z,26.52
2019-03-15T02:14:06.198Z,26.85
2019-03-15T02:15:11.356Z,26.33
2019-03-15T02:16:16.190Z,25.48
2019-03-15T02:17:21.065Z,22.73
2019-03-15T02:18:25.945Z,25.32
2019-03-15T02:19:30.776Z,24.35
2019-03-15T02:20:35.564Z,23.45
2019-03-15T02:21:40.456Z,26.65
2019-03-15T02:22:45.300Z,24.52
2019-03-15T02:23:50.337Z,26.37
2019-03-15T02:24:55.324Z,24.80
2019-03-15T02:26:00.204Z,24.70
2019-03-15T02:27:05.252Z,23.30
2019-03-15T02:28:09.987Z,25.00
2019-03-15T02:29:14.919Z,23.02
2019-03-15T02:30:19.999Z,24.37
2019-03-15T02:31:24.766Z,25.10
2019-03-15T02:32:29.502Z,25.20
2019-03-15T02:33:34.508Z,23.77
2019-03-15T02:34:39.489Z,26.37
2019-03-15T02:35:44.476Z,25.40
2019-03-15T02:36:49.246Z,24.43
2019-03-15T02:37:54.151Z,27.15
2019-03-15T02:38:59.005Z,23.87
2019-03-15T02:40:03.829Z,23.83
2019-03-15T02:41:08.593Z,25.77
2019-03-15T02:42:13.506Z,24.12
2019-03-15T02:43:19.121Z,24.20
2019-03-15T02:44:23.989Z,26.97
2019-03-15T02:45:33.028Z,24.82
2019-03-15T02:46:38.036Z,23.70
2019-03-15T02:47:42.830Z,24.72
2019-03-15T02:48:47.588Z,25.70
2019-03-15T02:49:52.547Z,22.98
2019-03-15T02:50:57.300Z,26.33
2019-03-15T02:52:02.063Z,23.57
2019-03-15T02:53:06.928Z,24.57
2019-03-15T02:54:11.912Z,24.52
2019-03-15T02:55:16.875Z,27.02
2019-03-15T02:56:21.818Z,24.63
2019-03-15T02:57:26.665Z,25.95
2019-03-15T02:58:31.577Z,24.67
2019-03-15T02:59:36.329Z,24.82
2019-03-15T03:00:41.331Z,23.57
2019-03-15T03:01:46.219Z,22.87
2019-03-15T03:02:51.089Z,24.05
2019-03-15T03:03:55.864Z,25.75
2019-03-15T03:05:00.735Z,23.05
2019-03-15T03:06:05.808Z,21.35
2019-03-15T03:07:10.716Z,23.30
2019-03-15T03:08:15.473Z,25.55
2019-03-15T03:09:20.537Z,23.90
2019-03-15T03:10:25.541Z,22.80
2019-03-15T03:11:30.444Z,24.63
2019-03-15T03:12:35.218Z,22.35
2019-03-15T03:13:40.167Z,24.18
2019-03-15T03:14:45.095Z,22.42
2019-03-15T03:15:50.005Z,24.02
2019-03-15T03:16:54.781Z,24.60
2019-03-15T03:17:59.641Z,22.77
2019-03-15T03:19:04.669Z,24.35
2019-03-15T03:20:09.961Z,21.87
2019-03-15T03:21:15.319Z,23.22
2019-03-15T03:22:20.411Z,25.50
2019-03-15T03:23:25.277Z,25.32
2019-03-15T03:24:30.028Z,24.70
2019-03-15T03:25:34.805Z,24.18
2019-03-15T03:26:40.290Z,24.43
2019-03-15T03:27:45.216Z,24.87
2019-03-15T03:28:49.964Z,26.25
2019-03-15T03:29:54.874Z,25.82
2019-03-15T03:30:59.889Z,25.72
2019-03-15T03:32:04.861Z,29.75
2019-03-15T03:33:12.397Z,27.05
2019-03-15T03:34:16.349Z,30.68
2019-03-15T03:35:21.135Z,27.55
2019-03-15T03:36:25.893Z,29.48
2019-03-15T03:37:30.840Z,26.10
2019-03-15T03:38:35.687Z,26.50
2019-03-15T03:39:40.426Z,26.90
2019-03-15T03:40:45.235Z,26.52
2019-03-15T03:41:50.109Z,27.37
2019-03-15T03:42:55.124Z,28.17
2019-03-15T03:43:59.921Z,25.77
2019-03-15T03:45:06.334Z,29.20
2019-03-15T03:46:11.280Z,26.97
2019-03-15T03:47:16.312Z,28.47
2019-03-15T03:48:21.228Z,33.73
2019-03-15T03:49:26.954Z,29.98
2019-03-15T03:50:32.368Z,27.55
2019-03-15T03:51:37.185Z,29.92
2019-03-15T03:52:42.173Z,28.07
2019-03-15T03:53:47.114Z,29.32
2019-03-15T03:54:51.980Z,32.23
2019-03-15T03:55:56.743Z,29.57
2019-03-15T03:57:02.086Z,26.10
2019-03-15T03:58:07.008Z,28.30
2019-03-15T03:59:12.020Z,31.48
2019-03-15T04:00:17.392Z,28.35
2019-03-15T04:01:22.515Z,31.20
2019-03-15T04:02:27.344Z,30.77
2019-03-15T04:03:32.217Z,30.43
2019-03-15T04:04:37.092Z,32.55
2019-03-15T04:05:42.352Z,30.60
2019-03-15T04:06:47.198Z,31.02
2019-03-15T04:07:52.215Z,31.95
2019-03-15T04:08:56.972Z,31.55
2019-03-15T04:10:01.756Z,33.25
2019-03-15T04:11:06.804Z,28.20
2019-03-15T04:12:11.808Z,31.60
2019-03-15T04:13:16.821Z,32.80
2019-03-15T04:14:21.641Z,33.83
2019-03-15T04:15:26.567Z,32.20
2019-03-15T04:16:31.700Z,33.35
2019-03-15T04:17:36.507Z,31.75
2019-03-15T04:18:41.400Z,35.60
2019-03-15T04:19:46.280Z,32.88
2019-03-15T04:20:51.172Z,31.42
2019-03-15T04:21:55.940Z,34.13
2019-03-15T04:23:00.683Z,30.17
2019-03-15T04:24:05.753Z,33.45
2019-03-15T04:25:10.608Z,32.33
2019-03-15T04:26:15.508Z,34.05
2019-03-15T04:27:20.284Z,32.00
2019-03-15T04:28:25.056Z,30.80
2019-03-15T04:29:30.077Z,32.55
2019-03-15T04:30:35.065Z,32.67
2019-03-15T04:31:39.821Z,33.25
2019-03-15T04:32:44.636Z,33.05
2019-03-15T04:33:49.631Z,30.82
2019-03-15T04:34:54.523Z,33.73
2019-03-15T04:35:59.323Z,33.02
2019-03-15T04:37:04.305Z,33.35
2019-03-15T04:38:09.087Z,33.70
2019-03-15T04:39:14.222Z,30.90
2019-03-15T04:40:19.336Z,35.45
2019-03-15T04:41:24.339Z,32.33
2019-03-15T04:42:29.122Z,33.70
2019-03-15T04:43:34.208Z,33.33
2019-03-15T04:44:39.119Z,31.82
2019-03-15T04:45:43.912Z,29.27
2019-03-15T04:46:48.711Z,36.50
2019-03-15T04:47:53.465Z,32.08
2019-03-15T04:48:58.392Z,36.30
2019-03-15T04:50:03.201Z,34.03
2019-03-15T04:51:07.956Z,34.25
2019-03-15T04:52:12.876Z,33.05
2019-03-15T04:53:17.859Z,34.78
2019-03-15T04:54:22.808Z,33.63
2019-03-15T04:55:27.648Z,33.90
2019-03-15T04:56:32.644Z,38.42
2019-03-15T04:57:37.471Z,33.28
2019-03-15T04:58:42.356Z,33.73
2019-03-15T04:59:47.312Z,34.98
2019-03-15T05:00:52.110Z,35.90
2019-03-15T05:01:57.821Z,34.15
2019-03-15T05:03:02.616Z,37.30
2019-03-15T05:04:07.437Z,33.53
2019-03-15T05:05:12.263Z,36.85
2019-03-15T05:06:17.140Z,38.17
2019-03-15T05:07:22.163Z,37.13
2019-03-15T05:08:27.012Z,35.08
2019-03-15T05:09:31.801Z,34.50
2019-03-15T05:10:36.604Z,38.53
2019-03-15T05:11:41.578Z,35.63
2019-03-15T05:12:46.540Z,37.23
2019-03-15T05:13:51.724Z,35.98
2019-03-15T05:14:56.708Z,35.52
2019-03-15T05:16:01.575Z,35.70
2019-03-15T05:17:06.781Z,35.52
2019-03-15T05:18:12.065Z,36.20
2019-03-15T05:19:17.248Z,37.60
2019-03-15T05:20:22.211Z,34.27
2019-03-15T05:21:27.110Z,37.35
2019-03-15T05:22:32.071Z,38.98
2019-03-15T05:23:37.120Z,33.48
2019-03-15T05:24:42.039Z,34.63
2019-03-15T05:25:46.872Z,37.05
2019-03-15T05:26:51.883Z,37.48
2019-03-15T05:27:57.527Z,38.48
2019-03-15T05:29:02.656Z,36.42
2019-03-15T05:30:08.415Z,38.78
2019-03-15T05:31:13.747Z,38.70
2019-03-15T05:32:18.812Z,34.15
2019-03-15T05:33:23.947Z,32.93
2019-03-15T05:34:29.160Z,36.90
2019-03-15T05:35:34.320Z,37.28
2019-03-15T05:36:39.347Z,36.68
2019-03-15T05:37:44.379Z,35.35
2019-03-15T05:38:49.491Z,39.98
2019-03-15T05:39:54.419Z,37.10
2019-03-15T05:40:59.877Z,35.75
2019-03-15T05:42:05.150Z,36.50
2019-03-15T05:43:10.277Z,37.08
2019-03-15T05:44:15.278Z,38.15
2019-03-15T05:45:20.622Z,37.70
2019-03-15T05:46:25.937Z,38.15
2019-03-15T05:47:31.011Z,41.83
2019-03-15T05:48:35.918Z,44.08
2019-03-15T05:49:41.177Z,39.98
2019-03-15T05:50:46.207Z,45.33
2019-03-15T05:51:51.139Z,40.43
2019-03-15T05:52:56.356Z,41.55
2019-03-15T05:54:01.676Z,37.15
2019-03-15T05:55:08.191Z,39.38
2019-03-15T05:56:13.256Z,37.10
2019-03-15T05:57:18.610Z,38.05
2019-03-15T05:58:23.735Z,37.53
2019-03-15T05:59:28.893Z,44.42
2019-03-15T06:00:33.980Z,38.42
2019-03-15T06:01:39.014Z,37.65
2019-03-15T06:02:44.287Z,39.13
2019-03-15T06:03:49.500Z,41.05
2019-03-15T06:04:54.626Z,39.18
2019-03-15T06:05:59.826Z,40.78
2019-03-15T06:07:05.097Z,41.28
2019-03-15T06:08:10.564Z,39.95
2019-03-15T06:09:15.802Z,41.25
2019-03-15T06:10:20.701Z,42.03
2019-03-15T06:11:25.957Z,39.53
2019-03-15T06:12:31.059Z,39.80
2019-03-15T06:13:36.081Z,38.73
2019-03-15T06:14:40.856Z,39.20
2019-03-15T06:15:45.944Z,39.13
2019-03-15T06:16:50.886Z,41.10
2019-03-15T06:17:55.935Z,42.25
2019-03-15T06:19:03.884Z,42.45
2019-03-15T06:20:09.567Z,35.90
2019-03-15T06:21:14.517Z,36.13
2019-03-15T06:22:19.404Z,34.45
2019-03-15T06:23:24.316Z,36.13
2019-03-15T06:24:29.609Z,36.90
2019-03-15T06:25:34.740Z,37.63
2019-03-15T06:26:40.880Z,41.85
2019-03-15T06:27:45.948Z,42.80
2019-03-15T06:28:51.304Z,41.45
2019-03-15T06:29:56.256Z,38.20
2019-03-15T06:31:01.254Z,36.65
2019-03-15T06:32:06.691Z,33.38
2019-03-15T06:33:11.503Z,37.83
2019-03-15T06:34:16.631Z,35.55
2019-03-15T06:35:21.807Z,33.70
2019-03-15T06:36:26.968Z,33.30
2019-03-15T06:37:32.007Z,37.13
2019-03-15T06:38:37.004Z,35.23
2019-03-15T06:39:42.143Z,31.00
2019-03-15T06:40:47.195Z,31.57
2019-03-15T06:41:52.339Z,32.20
2019-03-15T06:42:57.471Z,32.17
2019-03-15T06:44:02.794Z,28.10
2019-03-15T06:45:08.800Z,26.23
2019-03-15T06:46:14.053Z,27.58
2019-03-15T06:47:19.205Z,25.43
2019-03-15T06:48:24.345Z,26.23
2019-03-15T06:49:30.176Z,26.85
2019-03-15T06:50:35.693Z,23.38
2019-03-15T06:51:40.850Z,25.82
2019-03-15T06:52:46.227Z,25.82
2019-03-15T06:53:51.377Z,21.15
2019-03-15T06:54:56.964Z,23.20
2019-03-15T06:56:02.051Z,20.62
2019-03-15T06:57:06.949Z,21.45
2019-03-15T06:58:12.164Z,20.17
2019-03-15T06:59:17.369Z,21.80
2019-03-15T07:00:22.708Z,21.95
2019-03-15T07:01:27.932Z,22.87
2019-03-15T07:02:33.236Z,24.35
2019-03-15T07:03:38.434Z,26.02
2019-03-15T07:04:43.426Z,23.57
2019-03-15T07:05:48.431Z,20.75
2019-03-15T07:06:53.633Z,22.95
2019-03-15T07:07:58.985Z,21.12
2019-03-15T07:09:05.433Z,24.55
2019-03-15T07:10:10.800Z,24.72
2019-03-15T07:11:16.073Z,21.60
2019-03-15T07:12:21.332Z,21.35
2019-03-15T07:13:26.586Z,20.08
2019-03-15T07:14:31.885Z,22.55
2019-03-15T07:15:36.898Z,21.75
2019-03-15T07:16:41.802Z,20.97
2019-03-15T07:17:46.845Z,24.75
2019-03-15T07:18:52.206Z,22.58
2019-03-15T07:19:57.810Z,20.00
2019-03-15T07:21:03.017Z,19.30
2019-03-15T07:22:08.503Z,21.20
2019-03-15T07:23:13.900Z,19.45
2019-03-15T07:24:24.919Z,20.62
2019-03-15T07:25:26.048Z,18.62
2019-03-15T07:26:31.183Z,21.00
2019-03-15T07:27:36.720Z,20.68
2019-03-15T07:28:42.677Z,19.45
2019-03-15T07:29:49.563Z,18.40
2019-03-15T07:30:54.504Z,18.20
2019-03-15T07:32:00.054Z,20.35
2019-03-15T07:33:05.180Z,19.67
2019-03-15T07:34:13.703Z,19.02
2019-03-15T07:35:17.453Z,20.35
2019-03-15T07:36:22.360Z,18.82
2019-03-15T07:37:27.536Z,20.27
2019-03-15T07:38:32.733Z,17.35
2019-03-15T07:39:38.059Z,22.25
2019-03-15T07:40:43.317Z,20.32
2019-03-15T07:41:48.852Z,19.98
2019-03-15T07:42:54.175Z,20.32
2019-03-15T07:43:59.258Z,17.60
2019-03-15T07:45:04.635Z,18.67
2019-03-15T07:46:11.751Z,18.92
2019-03-15T07:47:16.715Z,19.15
2019-03-15T07:48:23.004Z,18.45
2019-03-15T07:49:28.349Z,19.07
2019-03-15T07:50:33.658Z,20.27
2019-03-15T07:51:38.932Z,20.92
2019-03-15T07:52:44.127Z,19.98
2019-03-15T07:53:49.275Z,17.60
2019-03-15T07:54:54.334Z,16.77
2019-03-15T07:55:59.947Z,15.58
2019-03-15T07:57:05.129Z,19.50
2019-03-15T07:58:10.432Z,17.27
2019-03-15T07:59:15.458Z,17.77
2019-03-15T08:00:20.945Z,18.10
2019-03-15T08:01:26.173Z,22.25
2019-03-15T08:02:31.116Z,27.10
2019-03-15T08:03:36.319Z,20.72
2019-03-15T08:04:41.376Z,22.73
2019-03-15T08:05:46.617Z,20.55
2019-03-15T08:06:51.635Z,19.35
2019-03-15T08:07:56.503Z,19.55
2019-03-15T08:09:01.528Z,17.30
2019-03-15T08:10:06.732Z,16.55
2019-03-15T08:11:11.579Z,15.48
2019-03-15T08:12:16.644Z,17.05
2019-03-15T08:13:25.989Z,17.27
2019-03-15T08:14:34.398Z,17.25
2019-03-15T08:15:43.752Z,18.05
2019-03-15T08:16:52.750Z,17.57
2019-03-15T08:17:58.380Z,15.40
2019-03-15T08:19:05.030Z,17.73
2019-03-15T08:20:10.782Z,15.35
2019-03-15T08:21:16.921Z,16.97
2019-03-15T08:22:21.892Z,16.52
2019-03-15T08:23:26.832Z,14.90
2019-03-15T08:24:31.733Z,15.80
2019-03-15T08:25:37.132Z,14.95
2019-03-15T08:26:44.754Z,14.58
2019-03-15T08:27:49.725Z,14.45
2019-03-15T08:28:54.751Z,14.23
2019-03-15T08:30:00.390Z,14.10
2019-03-15T08:31:05.957Z,17.05
2019-03-15T08:32:11.332Z,12.88
2019-03-15T08:33:16.236Z,12.70
2019-03-15T08:34:21.333Z,15.13
2019-03-15T08:35:26.235Z,17.48
2019-03-15T08:36:31.244Z,16.50
2019-03-15T08:37:36.372Z,16.12
2019-03-15T08:38:47.346Z,17.12
2019-03-15T08:39:48.333Z,14.95
2019-03-15T08:40:53.414Z,12.05
2019-03-15T08:41:58.457Z,15.50
2019-03-15T08:43:03.523Z,12.05
2019-03-15T08:44:08.764Z,11.25
2019-03-15T08:45:14.487Z,9.75
2019-03-15T08:46:19.629Z,12.60
2019-03-15T08:47:24.914Z,10.55
2019-03-15T08:48:31.981Z,9.23
2019-03-15T08:49:36.767Z,7.12
2019-03-15T08:50:41.747Z,7.17
2019-03-15T08:51:46.826Z,8.40
2019-03-15T08:52:54.085Z,8.83
2019-03-15T08:53:58.538Z,8.28
2019-03-15T08:55:05.529Z,7.85
2019-03-15T08:56:14.329Z,8.23
2019-03-15T08:57:19.263Z,7.47
2019-03-15T08:58:24.389Z,8.38
2019-03-15T08:59:29.282Z,7.97
2019-03-15T09:00:35.406Z,9.43
2019-03-15T09:01:40.350Z,11.18
2019-03-15T09:02:45.416Z,9.48
2019-03-15T09:03:50.524Z,8.58
2019-03-15T09:04:55.960Z,6.25
2019-03-15T09:06:00.842Z,8.30
2019-03-15T09:07:06.095Z,8.93
2019-03-15T09:08:11.016Z,5.80
2019-03-15T09:09:16.047Z,6.28
2019-03-15T09:10:23.514Z,6.00
2019-03-15T09:11:28.211Z,5.33
2019-03-15T09:12:33.016Z,6.37
2019-03-15T09:13:37.942Z,5.17
2019-03-15T09:14:42.985Z,6.05
2019-03-15T09:15:48.148Z,5.15
2019-03-15T09:16:53.262Z,5.95
2019-03-15T09:17:58.515Z,5.22
2019-03-15T09:19:03.658Z,4.90
2019-03-15T09:20:08.776Z,4.00
2019-03-15T09:21:14.041Z,7.03
2019-03-15T09:22:18.921Z,6.55
2019-03-15T09:23:23.980Z,5.12
2019-03-15T09:24:29.021Z,8.50
2019-03-15T09:25:34.146Z,7.12
2019-03-15T09:26:39.342Z,6.40
2019-03-15T09:27:45.830Z,8.35
2019-03-15T09:28:50.883Z,5.60
2019-03-15T09:29:56.371Z,7.22
2019-03-15T09:31:01.372Z,5.42
2019-03-15T09:32:09.374Z,6.42
2019-03-15T09:33:14.304Z,5.92
2019-03-15T09:34:19.446Z,5.35
2019-03-15T09:35:24.375Z,6.17
2019-03-15T09:36:29.352Z,5.65
2019-03-15T09:37:34.436Z,7.20
2019-03-15T09:38:39.526Z,10.35
2019-03-15T09:39:44.592Z,8.23
2019-03-15T09:40:49.772Z,7.72
2019-03-15T09:41:54.935Z,9.03
2019-03-15T09:43:02.444Z,10.10
2019-03-15T09:44:07.518Z,11.50
2019-03-15T09:45:13.240Z,13.70
2019-03-15T09:46:18.332Z,12.28
2019-03-15T09:47:23.277Z,11.68
2019-03-15T09:48:28.543Z,14.03
2019-03-15T09:49:33.540Z,16.55
2019-03-15T09:50:50.670Z,19.25
2019-03-15T09:51:45.368Z,13.38
2019-03-15T09:52:50.457Z,16.05
2019-03-15T09:53:55.509Z,12.40
2019-03-15T09:55:00.453Z,12.78
2019-03-15T09:56:05.807Z,14.63
2019-03-15T09:57:11.135Z,16.85
2019-03-15T09:58:17.432Z,16.05
2019-03-15T09:59:22.898Z,12.18
2019-03-15T10:00:28.202Z,9.53
2019-03-15T10:01:35.198Z,9.85
2019-03-15T10:02:39.882Z,8.75
2019-03-15T10:03:45.758Z,8.58
2019-03-15T10:04:50.974Z,8.05
2019-03-15T10:05:56.123Z,11.05
2019-03-15T10:07:01.070Z,12.03
2019-03-15T10:08:08.990Z,10.65
2019-03-15T10:09:14.511Z,10.58
2019-03-15T10:10:20.108Z,12.95
2019-03-15T10:11:25.129Z,12.58
2019-03-15T10:12:30.165Z,11.40
2019-03-15T10:13:35.325Z,12.30
2019-03-15T10:14:40.543Z,9.58
2019-03-15T10:15:45.467Z,9.00
2019-03-15T10:16:50.819Z,8.65
2019-03-15T10:17:56.082Z,7.78
2019-03-15T10:19:01.319Z,11.30
2019-03-15T10:20:07.913Z,8.38
2019-03-15T10:21:15.903Z,9.55
2019-03-15T10:22:20.743Z,8.38
2019-03-15T10:23:26.053Z,9.88
2019-03-15T10:24:31.219Z,8.78
2019-03-15T10:25:46.350Z,9.98
2019-03-15T10:26:42.866Z,8.48
2019-03-15T10:27:48.136Z,8.73
2019-03-15T10:28:53.294Z,7.45
2019-03-15T10:29:58.373Z,7.95
2019-03-15T10:31:03.485Z,5.97
2019-03-15T10:32:08.595Z,7.05
2019-03-15T10:33:14.081Z,5.70
2019-03-15T10:34:19.068Z,6.15
2019-03-15T10:35:24.144Z,6.97
2019-03-15T10:36:29.462Z,6.60
2019-03-15T10:37:34.553Z,6.78
2019-03-15T10:38:41.404Z,6.10
2019-03-15T10:39:46.416Z,6.00
2019-03-15T10:40:51.505Z,7.10
2019-03-15T10:41:58.218Z,5.42
2019-03-15T10:43:04.083Z,6.75
2019-03-15T10:44:09.137Z,6.78
2019-03-15T10:45:14.398Z,5.10
2019-03-15T10:46:19.509Z,4.72
2019-03-15T10:47:24.881Z,5.15
2019-03-15T10:48:29.961Z,5.42
2019-03-15T10:49:43.834Z,5.30
2019-03-15T10:50:51.753Z,5.10
2019-03-15T10:51:56.994Z,5.40
2019-03-15T10:53:02.065Z,6.92
2019-03-15T10:54:06.946Z,6.35
2019-03-15T10:55:12.171Z,7.12
2019-03-15T10:56:17.852Z,5.45
2019-03-15T10:57:22.876Z,5.65
2019-03-15T10:58:28.079Z,5.40
2019-03-15T10:59:33.352Z,5.35
2019-03-15T11:00:39.696Z,6.05
2019-03-15T11:01:44.804Z,5.55
2019-03-15T11:02:51.017Z,5.47
2019-03-15T11:03:58.611Z,5.33
2019-03-15T11:05:07.387Z,5.45
2019-03-15T11:06:12.617Z,5.00
2019-03-15T11:07:17.884Z,4.37
2019-03-15T11:08:24.309Z,6.62
2019-03-15T11:09:31.656Z,5.00
2019-03-15T11:10:40.434Z,4.72
2019-03-15T11:11:46.808Z,6.53
2019-03-15T11:12:53.307Z,6.05
2019-03-15T11:13:59.188Z,4.28
2019-03-15T11:15:04.669Z,5.90
2019-03-15T11:16:11.149Z,4.37
2019-03-15T11:17:16.382Z,6.05
2019-03-15T11:18:21.534Z,5.28
2019-03-15T11:19:26.573Z,4.22
2019-03-15T11:20:32.091Z,5.03
2019-03-15T11:21:37.429Z,8.28
2019-03-15T11:22:42.608Z,6.55
2019-03-15T11:23:47.569Z,6.42
2019-03-15T11:24:52.796Z,4.40
2019-03-15T11:25:57.969Z,4.47
2019-03-15T11:27:02.938Z,6.05
2019-03-15T11:28:08.195Z,6.22
2019-03-15T11:29:13.587Z,5.65
2019-03-15T11:30:18.847Z,5.67
2019-03-15T11:31:26.722Z,4.67
2019-03-15T11:32:31.784Z,7.90
2019-03-15T11:33:37.392Z,4.35
2019-03-15T11:34:42.519Z,4.85
2019-03-15T11:35:48.026Z,4.92
2019-03-15T11:36:58.314Z,4.90
2019-03-15T11:38:00.059Z,4.58
2019-03-15T11:39:06.914Z,5.90
2019-03-15T11:40:14.008Z,6.90
2019-03-15T11:41:19.876Z,3.62
2019-03-15T11:42:28.237Z,3.62
2019-03-15T11:43:34.531Z,3.42
2019-03-15T11:44:39.759Z,2.33
2019-03-15T11:45:44.736Z,2.80
2019-03-15T11:46:49.674Z,3.45
2019-03-15T11:48:03.426Z,5.42
2019-03-15T11:49:01.356Z,3.17
2019-03-15T11:50:07.504Z,4.78
2019-03-15T11:51:12.672Z,4.62
2019-03-15T11:52:18.177Z,5.05
2019-03-15T11:53:23.361Z,5.85
2019-03-15T11:54:28.436Z,7.37
2019-03-15T11:55:33.917Z,7.67
2019-03-15T11:56:39.238Z,7.47
2019-03-15T11:57:44.377Z,5.90
2019-03-15T11:58:52.018Z,5.60
2019-03-15T11:59:57.050Z,7.05
2019-03-15T12:01:05.046Z,6.33
2019-03-15T12:02:10.873Z,5.58
2019-03-15T12:03:16.257Z,5.83
2019-03-15T12:04:24.075Z,6.35
2019-03-15T12:05:30.169Z,5.58
2019-03-15T12:06:36.577Z,5.97
2019-03-15T12:07:41.990Z,6.47
2019-03-15T12:08:47.217Z,6.60
2019-03-15T12:10:40.302Z,5.00
2019-03-15T12:11:45.466Z,5.65
2019-03-15T12:12:50.408Z,5.95
2019-03-15T12:13:56.648Z,5.33
2019-03-15T12:15:01.725Z,4.03
2019-03-15T12:16:06.980Z,8.53
2019-03-15T12:17:13.609Z,4.20
2019-03-15T12:18:18.756Z,5.67
2019-03-15T12:19:23.836Z,2.90
2019-03-15T12:20:30.941Z,3.60
2019-03-15T12:21:36.137Z,5.83
2019-03-15T12:22:45.250Z,4.75
2019-03-15T12:23:50.486Z,9.58
2019-03-15T12:24:55.719Z,7.33
2019-03-15T12:26:00.684Z,8.60
2019-03-15T12:27:08.232Z,5.83
2019-03-15T12:28:13.545Z,7.30
2019-03-15T12:29:19.951Z,4.90
2019-03-15T12:30:28.683Z,8.08
2019-03-15T12:31:33.853Z,8.10
2019-03-15T12:32:42.013Z,8.33
2019-03-15T12:33:46.999Z,6.30
2019-03-15T12:34:52.300Z,4.60
2019-03-15T12:36:03.322Z,4.37
2019-03-15T12:37:08.620Z,6.97
2019-03-15T12:38:16.622Z,4.60
2019-03-15T12:39:23.451Z,4.37
2019-03-15T12:40:28.679Z,3.85
2019-03-15T12:41:33.929Z,4.10
2019-03-15T12:42:39.435Z,2.72
2019-03-15T12:43:45.485Z,2.92
2019-03-15T12:44:51.016Z,4.37
2019-03-15T12:45:56.336Z,3.02
2019-03-15T12:47:01.483Z,4.53
2019-03-15T12:48:08.380Z,4.40
2019-03-15T12:49:13.564Z,4.12
2019-03-15T12:50:21.082Z,4.90
2019-03-15T12:51:32.085Z,3.87
2019-03-15T12:52:41.948Z,3.08
2019-03-15T12:53:42.945Z,5.72
2019-03-15T12:54:48.047Z,4.12
2019-03-15T12:55:53.005Z,3.58
2019-03-15T12:56:58.080Z,5.25
2019-03-15T12:58:03.237Z,5.87
2019-03-15T12:59:08.616Z,6.25
2019-03-15T13:00:15.968Z,4.67
2019-03-15T13:01:21.388Z,4.58
2019-03-15T13:02:26.729Z,3.80
2019-03-15T13:03:31.717Z,4.83
2019-03-15T13:04:36.915Z,5.15
2019-03-15T13:05:41.935Z,4.10
2019-03-15T13:06:46.986Z,5.87
2019-03-15T13:07:52.039Z,5.20
2019-03-15T13:08:57.121Z,5.00
2019-03-15T13:10:02.044Z,4.17
2019-03-15T13:11:07.002Z,5.12
2019-03-15T13:12:12.240Z,3.90
2019-03-15T13:13:17.347Z,6.47
2019-03-15T13:14:22.360Z,6.00
2019-03-15T13:15:27.225Z,4.47
2019-03-15T13:16:33.310Z,4.70
2019-03-15T13:17:39.801Z,5.70
2019-03-15T13:18:44.780Z,5.60
2019-03-15T13:19:55.159Z,4.83
2019-03-15T13:20:56.535Z,5.53
2019-03-15T13:22:01.803Z,5.05
2019-03-15T13:23:06.886Z,4.28
2019-03-15T13:24:13.816Z,5.00
2019-03-15T13:25:18.685Z,3.87
2019-03-15T13:26:24.008Z,6.37
2019-03-15T13:27:29.193Z,4.15
2019-03-15T13:28:34.235Z,6.30
2019-03-15T13:29:39.476Z,3.52
2019-03-15T13:30:44.815Z,5.17
2019-03-15T13:31:49.989Z,5.67
2019-03-15T13:32:55.170Z,5.55
2019-03-15T13:34:00.241Z,3.05
2019-03-15T13:35:07.212Z,3.95
2019-03-15T13:36:12.568Z,4.70
2019-03-15T13:37:17.869Z,3.12
2019-03-15T13:38:25.507Z,3.80
2019-03-15T13:39:32.738Z,4.67
2019-03-15T13:40:38.057Z,5.60
2019-03-15T13:41:43.312Z,5.17
2019-03-15T13:42:48.586Z,2.45
2019-03-15T13:43:53.613Z,3.42
2019-03-15T13:44:59.801Z,5.17
2019-03-15T13:46:05.155Z,6.40
2019-03-15T13:47:10.782Z,4.47
2019-03-15T13:48:16.314Z,8.05
2019-03-15T13:49:22.169Z,13.18
2019-03-15T13:50:27.377Z,11.88
2019-03-15T13:51:32.556Z,11.48
2019-03-15T13:52:37.961Z,9.18
2019-03-15T13:53:43.293Z,6.65
2019-03-15T13:54:48.428Z,9.98
2019-03-15T13:55:53.861Z,6.62
2019-03-15T13:56:59.274Z,5.35
2019-03-15T13:58:04.608Z,3.60
2019-03-15T13:59:10.171Z,5.15
2019-03-15T14:00:15.650Z,6.92
2019-03-15T14:01:20.795Z,4.87
2019-03-15T14:02:26.204Z,6.83
2019-03-15T14:03:31.934Z,6.83
2019-03-15T14:04:37.057Z,5.50
2019-03-15T14:05:42.309Z,6.45
2019-03-15T14:06:47.654Z,7.78
2019-03-15T14:07:53.218Z,6.37
2019-03-15T14:08:58.200Z,6.05
2019-03-15T14:10:04.224Z,4.83
2019-03-15T14:11:09.966Z,8.58
2019-03-15T14:12:15.967Z,8.48